Aérodrome :
LOGIN :

S'inscrire | Disclaimer

   EN    FR    IT 

 










Légende :    VFR   VFR Marginal   IFR   IFR Intensif   IFR Très Intensif
Visi : 
Plafond : 
>= 8 km
>= 3000ft
5 à 8 km
1000 à 3000 ft
1500m à 5 km
500 à 1000 ft
800 à 1500m
200 à 500 ft
< 800m
< 200 ft
Symboles :   Orages  Brouillard  Fortes neiges  Fortes précipitations  Vent > 20 kt
SIGMETs :   Divers  Orages  Givrage  Turbulence  Onde Orograph.  Cendres Volcan.






- Altitude de l'aérodrome : 1161 ft
- Code IATA : RJL


LELO - Logroño-Agoncillo

DERNIER METAR :
  • 050300Z AUTO 29005KT 260V330 9999 FEW058 13/10 Q1013

METARs EXPIRÉS :
  • 050230Z AUTO 29004KT 230V350 9999 BKN042 OVC050 13/10 Q1013
  • 050200Z AUTO 26004KT 230V290 9999 FEW042 SCT048 BKN067 13/10 Q1013
  • 050130Z AUTO 30006KT 260V340 9999 SCT066 13/10 Q1013
  • 050100Z AUTO 28007KT 9999 FEW047 SCT066 13/10 Q1013

TAF TAF LELO
Valide du 05 à 03h jusqu'au 05 à 12h UTC


050200Z 0503/0512 28011KT 9999 SCT035



MET'MAP, la Météo Aéronautique d'un coup d'oeil ! - Copyright ORBIFLY Décembre 2007 - Disclaimer

ORBIFLY MET'MAP TEAM :

Programmation & Développement : Alexandra Zaïnal
Sur une idée originale de : Baudouin d'Aumeries
Assistance à la programmation : Marc-Olivier Méhu
Soutien technique & logistique : Manuel Goepfert

Contact : metmap@orbifly.com




SOURCES & CREDITS :

   NOAA